Camas, Washington
Current Conditions -  °F | °C
As of 6:53 PM on Friday 19 Dec 2014 (Local Time) from KTTD Reporting Station
Overcast Overcast  
Wind Chill: 43°   Ceiling: 4100
Heat Index: 48°   Visibility: 10mi
Dew Point: 43°   Wind: 10mph
Humidity: 83%   Direction: 110°ESE
Pressure: 29.99"   Gusts: NA
Location:  45.59°N, 122.4°W
Report Text: KTTD 200253Z 11009KT 10SM BKN041 OVC055 09/06 A2999 RMK AO2 RAE27 SLP154 P0000 60000 T00890061 56002
Loading
Personal Weather Stations






























Interactive Weather Map New forecast layout! Learn more

10-Day Weather Forecast

Advertisements
Track Severe Weather on mobile